Time;durP1;ratioP1;P1;durP2;ratioP2;P2;SDS_P1;SDS_P2;PMS_P1;PMS_P2;Temp;Humidity;BMP_temperature;BMP_pressure;BME280_temperature;BME280_humidity;BME280_pressure;Samples;Min_cycle;Max_cycle;Signal;HPM_P1;HPM_P2
2024/02/16 00:02:23;;;;;;;1.95;1.75;;;8.10;99.90;;;;;;5050732;28;20211;-74
2024/02/16 00:04:50;;;;;;;2.47;2.20;;;8.10;99.90;;;;;;5047797;28;20198;-74
2024/02/16 00:07:17;;;;;;;5.05;2.67;;;8.20;99.90;;;;;;5050704;28;20319;-74
2024/02/16 00:09:43;;;;;;;3.88;2.40;;;8.20;99.90;;;;;;5051048;28;20237;-75
2024/02/16 00:12:11;;;;;;;2.95;2.17;;;8.20;99.90;;;;;;5050797;28;20206;-74
2024/02/16 00:14:38;;;;;;;2.05;1.77;;;8.30;99.90;;;;;;5050721;28;20244;-74
2024/02/16 00:17:06;;;;;;;2.50;1.52;;;8.20;99.90;;;;;;5050611;28;20605;-74
2024/02/16 00:19:33;;;;;;;3.67;2.25;;;8.30;99.90;;;;;;5050538;28;20212;-74
2024/02/16 00:22:00;;;;;;;3.03;2.15;;;8.30;99.90;;;;;;5050731;28;20209;-74
2024/02/16 00:24:26;;;;;;;4.93;2.88;;;8.30;99.90;;;;;;5050741;28;20233;-74
2024/02/16 00:26:53;;;;;;;3.35;2.30;;;8.30;99.90;;;;;;5050774;28;20221;-75
2024/02/16 00:29:21;;;;;;;2.75;2.55;;;8.30;99.90;;;;;;5050590;28;20213;-74
2024/02/16 00:31:48;;;;;;;2.95;2.42;;;8.30;99.90;;;;;;5050492;28;20199;-74
2024/02/16 00:34:15;;;;;;;2.70;2.17;;;8.30;99.90;;;;;;5050503;28;20229;-74
2024/02/16 00:36:42;;;;;;;2.38;2.13;;;8.40;99.90;;;;;;5050638;28;20224;-74
2024/02/16 00:39:09;;;;;;;2.95;2.30;;;8.40;99.90;;;;;;5050176;28;20221;-74
2024/02/16 00:41:35;;;;;;;3.22;2.95;;;8.40;99.90;;;;;;5050700;28;20696;-74
2024/02/16 00:44:02;;;;;;;2.55;2.30;;;8.50;99.90;;;;;;5050367;28;20225;-74
2024/02/16 00:46:31;;;;;;;4.28;2.00;;;8.50;99.90;;;;;;5050621;28;20207;-73
2024/02/16 00:48:58;;;;;;;4.30;2.45;;;8.50;99.90;;;;;;5050277;28;20207;-74
2024/02/16 00:51:25;;;;;;;2.70;2.50;;;8.50;99.90;;;;;;5050615;28;20210;-74
2024/02/16 00:53:52;;;;;;;4.78;2.65;;;8.50;99.90;;;;;;5047474;28;20263;-74
2024/02/16 00:56:19;;;;;;;4.25;2.45;;;8.60;99.90;;;;;;5050735;28;20253;-74
2024/02/16 00:58:46;;;;;;;5.72;2.70;;;8.60;99.90;;;;;;5050328;28;20675;-74
2024/02/16 01:01:13;;;;;;;2.92;2.60;;;8.60;99.90;;;;;;5050405;28;20209;-74
2024/02/16 01:03:42;;;;;;;3.10;2.80;;;8.60;99.90;;;;;;5050375;28;20300;-74
2024/02/16 01:06:10;;;;;;;5.65;3.25;;;8.60;99.90;;;;;;5049843;28;20259;-74
2024/02/16 01:08:36;;;;;;;2.42;2.22;;;8.60;99.90;;;;;;5050049;28;20261;-74
2024/02/16 01:11:03;;;;;;;2.65;2.33;;;8.60;99.90;;;;;;5050182;28;20206;-74
2024/02/16 01:13:30;;;;;;;3.45;2.53;;;8.60;99.90;;;;;;5049962;28;20223;-74
2024/02/16 01:15:57;;;;;;;3.20;2.13;;;8.60;99.90;;;;;;5050065;28;20246;-74
2024/02/16 01:18:23;;;;;;;2.90;2.35;;;8.60;99.90;;;;;;5050208;28;20208;-74
2024/02/16 01:20:51;;;;;;;2.60;2.40;;;8.70;99.90;;;;;;5050035;28;20218;-74
2024/02/16 01:23:18;;;;;;;2.95;2.25;;;8.70;99.90;;;;;;5050124;28;20229;-74
2024/02/16 01:25:46;;;;;;;3.97;2.78;;;8.70;99.90;;;;;;5050339;28;20695;-74
2024/02/16 01:28:12;;;;;;;2.30;2.10;;;8.70;99.90;;;;;;5050113;28;20697;-74
2024/02/16 01:30:39;;;;;;;3.65;2.47;;;8.70;99.90;;;;;;5050246;28;20602;-74
2024/02/16 01:33:06;;;;;;;2.03;1.80;;;8.70;99.90;;;;;;5053324;28;20226;-74
2024/02/16 01:35:33;;;;;;;6.07;2.78;;;8.70;99.90;;;;;;5053634;28;20268;-74
2024/02/16 01:38:02;;;;;;;2.30;2.10;;;8.70;99.90;;;;;;5053303;28;20199;-74
2024/02/16 01:40:29;;;;;;;2.85;2.55;;;8.70;99.90;;;;;;5053643;28;20647;-74
2024/02/16 01:42:56;;;;;;;5.18;2.35;;;8.70;99.90;;;;;;5053314;28;20230;-75
2024/02/16 01:45:23;;;;;;;2.10;1.90;;;8.70;99.90;;;;;;5053630;28;20261;-75
2024/02/16 01:47:51;;;;;;;2.22;1.85;;;8.80;99.90;;;;;;5053044;28;20210;-75
2024/02/16 01:50:19;;;;;;;3.35;2.00;;;8.80;99.90;;;;;;5053380;28;20219;-75
2024/02/16 01:52:47;;;;;;;2.63;1.80;;;8.90;99.90;;;;;;5053164;28;20226;-75
2024/02/16 01:55:16;;;;;;;3.20;2.60;;;9.00;99.90;;;;;;5047035;28;20222;-75
2024/02/16 01:57:45;;;;;;;2.17;1.80;;;9.00;99.90;;;;;;5053116;28;20220;-74
2024/02/16 02:00:14;;;;;;;3.63;2.35;;;9.10;99.90;;;;;;5053063;28;20204;-74
2024/02/16 02:02:42;;;;;;;1.98;1.77;;;9.20;99.90;;;;;;5053008;28;20240;-74
2024/02/16 02:05:09;;;;;;;2.65;2.08;;;9.20;99.90;;;;;;5053010;28;20218;-75
2024/02/16 02:07:35;;;;;;;2.00;1.70;;;9.30;99.90;;;;;;5053076;28;20569;-74
2024/02/16 02:10:03;;;;;;;2.17;1.85;;;9.40;99.90;;;;;;5052831;28;20212;-75
2024/02/16 02:12:31;;;;;;;3.08;2.30;;;9.30;99.90;;;;;;5053109;28;20208;-75
2024/02/16 02:14:57;;;;;;;2.50;2.08;;;9.40;99.90;;;;;;5052688;28;20203;-75
2024/02/16 02:17:24;;;;;;;2.30;1.83;;;9.30;99.90;;;;;;5052895;28;20586;-75
2024/02/16 02:19:51;;;;;;;3.85;2.53;;;9.30;99.90;;;;;;5052650;28;20211;-74
2024/02/16 02:22:19;;;;;;;3.03;2.25;;;9.30;99.90;;;;;;5052689;28;20215;-74
2024/02/16 02:24:46;;;;;;;2.47;2.28;;;9.30;99.90;;;;;;5052908;28;20280;-74
2024/02/16 02:27:14;;;;;;;3.05;2.05;;;9.30;99.90;;;;;;5052468;28;20216;-74
2024/02/16 02:29:41;;;;;;;3.00;1.83;;;9.20;99.90;;;;;;5052681;28;20209;-75
2024/02/16 02:32:09;;;;;;;2.60;1.90;;;9.20;99.90;;;;;;5052608;28;20230;-75
2024/02/16 02:34:37;;;;;;;1.95;1.80;;;9.20;99.90;;;;;;5052533;28;20224;-75
2024/02/16 02:37:04;;;;;;;3.63;1.83;;;9.20;99.90;;;;;;5050992;28;20214;-75
2024/02/16 02:39:32;;;;;;;2.30;1.70;;;9.20;99.90;;;;;;5052395;28;20241;-74
2024/02/16 02:41:59;;;;;;;2.67;2.25;;;9.20;99.90;;;;;;5051701;28;20203;-75
2024/02/16 02:44:26;;;;;;;1.85;1.63;;;9.20;99.90;;;;;;5052518;28;20228;-74
2024/02/16 02:46:53;;;;;;;2.10;1.90;;;9.20;99.90;;;;;;5052323;28;20215;-75
2024/02/16 02:49:20;;;;;;;2.20;1.77;;;9.20;99.90;;;;;;5052228;28;20215;-74
2024/02/16 02:51:46;;;;;;;2.75;1.88;;;9.20;99.90;;;;;;5052031;28;20212;-75
2024/02/16 02:54:13;;;;;;;2.50;1.85;;;9.30;99.90;;;;;;5051999;28;20242;-74
2024/02/16 02:56:41;;;;;;;2.17;1.60;;;9.30;99.90;;;;;;5052282;28;20228;-74
2024/02/16 02:59:08;;;;;;;1.83;1.70;;;9.30;99.90;;;;;;5051737;28;20299;-75
2024/02/16 03:08:19;;;;;;;3.55;2.30;;;9.20;99.90;;;;;;5044638;28;20206;-74
2024/02/16 03:10:46;;;;;;;2.53;2.00;;;9.20;99.90;;;;;;5051746;28;20235;-74
2024/02/16 03:13:17;;;;;;;1.70;1.60;;;9.20;99.90;;;;;;5044635;28;20261;-74
2024/02/16 03:15:44;;;;;;;2.40;1.80;;;9.10;99.90;;;;;;5051575;28;20219;-75
2024/02/16 03:18:11;;;;;;;1.73;1.63;;;9.10;99.90;;;;;;5051468;28;20360;-75
2024/02/16 03:20:38;;;;;;;2.03;1.80;;;9.10;99.90;;;;;;5051724;28;20207;-74
2024/02/16 03:23:05;;;;;;;1.95;1.83;;;9.10;99.90;;;;;;5051422;28;20230;-74
2024/02/16 03:25:32;;;;;;;2.45;1.92;;;9.10;99.90;;;;;;5051476;28;20210;-75
2024/02/16 03:27:58;;;;;;;1.95;1.77;;;9.00;99.90;;;;;;5051322;28;20699;-74
2024/02/16 03:30:26;;;;;;;2.20;1.42;;;9.00;99.90;;;;;;5051278;28;21099;-75
2024/02/16 03:32:53;;;;;;;2.53;1.30;;;9.00;99.90;;;;;;5051109;28;20633;-74
2024/02/16 03:35:20;;;;;;;1.98;1.80;;;9.00;99.90;;;;;;5051160;28;20213;-74
2024/02/16 03:37:46;;;;;;;1.60;1.50;;;9.00;99.90;;;;;;5051121;28;20222;-74
2024/02/16 03:40:14;;;;;;;2.22;1.92;;;9.00;99.90;;;;;;5051076;28;20215;-74
2024/02/16 03:42:41;;;;;;;1.75;1.48;;;9.00;99.90;;;;;;5051229;28;20231;-74
2024/02/16 03:45:08;;;;;;;2.00;1.67;;;9.00;99.90;;;;;;5050822;28;20238;-74
2024/02/16 03:47:36;;;;;;;2.63;2.33;;;9.00;99.90;;;;;;5051028;28;20201;-74
2024/02/16 03:50:03;;;;;;;1.77;1.58;;;8.90;99.90;;;;;;5050870;28;20689;-74
2024/02/16 03:52:30;;;;;;;2.63;1.92;;;8.90;99.90;;;;;;5051190;28;20215;-74
2024/02/16 03:54:57;;;;;;;2.88;1.63;;;9.00;99.90;;;;;;5050297;28;20298;-74
2024/02/16 03:57:24;;;;;;;1.83;1.63;;;8.90;99.90;;;;;;5050750;28;20230;-74
2024/02/16 03:59:50;;;;;;;3.22;1.90;;;8.90;99.90;;;;;;5050863;28;20237;-74
2024/02/16 04:02:18;;;;;;;3.47;1.75;;;8.90;99.90;;;;;;5050833;28;20215;-74
2024/02/16 04:04:46;;;;;;;2.00;1.80;;;8.80;99.90;;;;;;5050894;28;20221;-74
2024/02/16 04:07:13;;;;;;;2.95;2.22;;;8.80;99.90;;;;;;5042872;28;20701;-74
2024/02/16 04:09:39;;;;;;;2.08;1.52;;;8.80;99.90;;;;;;5050964;28;20210;-74
2024/02/16 04:12:07;;;;;;;2.85;1.95;;;8.80;99.90;;;;;;5050498;28;20210;-74
2024/02/16 04:14:34;;;;;;;2.13;1.90;;;8.90;99.90;;;;;;5050822;28;20219;-74
2024/02/16 04:17:01;;;;;;;1.80;1.60;;;8.80;99.90;;;;;;5044433;28;20220;-75
2024/02/16 04:19:28;;;;;;;2.20;2.00;;;8.80;99.90;;;;;;5044743;28;20207;-75
2024/02/16 04:21:56;;;;;;;2.38;1.60;;;8.80;99.90;;;;;;5042461;28;20211;-76
2024/02/16 04:24:23;;;;;;;2.30;2.05;;;8.80;99.90;;;;;;5044693;28;20226;-75
2024/02/16 04:26:49;;;;;;;3.25;1.88;;;8.90;99.90;;;;;;5042090;28;20211;-75
2024/02/16 04:29:16;;;;;;;1.77;1.67;;;8.90;99.90;;;;;;5044588;28;20202;-75
2024/02/16 04:31:45;;;;;;;2.00;1.80;;;8.90;99.90;;;;;;5045386;28;20210;-75
2024/02/16 04:34:11;;;;;;;2.13;1.92;;;8.90;99.90;;;;;;5047041;28;20219;-75
2024/02/16 04:36:38;;;;;;;3.42;2.60;;;8.90;99.90;;;;;;5043507;28;20224;-76
2024/02/16 04:39:06;;;;;;;2.83;2.38;;;8.90;99.90;;;;;;5043338;28;20601;-75
2024/02/16 04:41:33;;;;;;;4.13;2.40;;;8.90;99.90;;;;;;5046939;28;20629;-75
2024/02/16 04:44:00;;;;;;;2.75;2.55;;;8.90;99.90;;;;;;5042688;28;20231;-75
2024/02/16 04:46:27;;;;;;;2.47;2.05;;;8.90;99.90;;;;;;5044816;28;20212;-75
2024/02/16 04:48:54;;;;;;;2.30;2.10;;;8.90;99.90;;;;;;5041996;28;20296;-75
2024/02/16 04:51:21;;;;;;;2.85;2.38;;;8.90;99.90;;;;;;5045633;28;20233;-76
2024/02/16 04:53:48;;;;;;;5.00;2.40;;;8.90;99.90;;;;;;5041812;28;20234;-75
2024/02/16 04:56:16;;;;;;;2.60;2.38;;;8.90;99.90;;;;;;5044346;28;20645;-75
2024/02/16 04:58:42;;;;;;;4.05;2.60;;;8.90;99.90;;;;;;5042682;28;20597;-75
2024/02/16 05:01:09;;;;;;;2.78;2.50;;;8.90;99.90;;;;;;5043891;28;20590;-76
2024/02/16 05:03:35;;;;;;;3.00;2.70;;;8.90;99.90;;;;;;5043651;28;20230;-76
2024/02/16 05:06:02;;;;;;;2.45;2.03;;;8.90;99.90;;;;;;5044901;28;20203;-74
2024/02/16 05:08:29;;;;;;;3.55;3.20;;;8.90;99.90;;;;;;5048117;28;20301;-74
2024/02/16 05:10:55;;;;;;;2.88;2.63;;;9.00;99.90;;;;;;5045652;28;20210;-75
2024/02/16 05:13:24;;;;;;;4.47;2.85;;;9.00;99.90;;;;;;5048042;28;20233;-75
2024/02/16 05:15:51;;;;;;;3.38;2.60;;;9.00;99.90;;;;;;5048061;28;20255;-74
2024/02/16 05:18:17;;;;;;;8.10;2.80;;;9.00;99.90;;;;;;5045856;28;20238;-74
2024/02/16 05:20:44;;;;;;;4.18;2.55;;;9.00;99.90;;;;;;5054020;28;20225;-73
2024/02/16 05:23:11;;;;;;;2.97;2.58;;;9.00;99.90;;;;;;5052302;28;20727;-73
2024/02/16 05:25:38;;;;;;;3.15;2.55;;;9.00;99.90;;;;;;5052114;28;20594;-73
2024/02/16 05:28:05;;;;;;;3.25;2.60;;;9.00;99.90;;;;;;5051964;28;20204;-74
2024/02/16 05:30:34;;;;;;;3.25;2.42;;;9.00;99.90;;;;;;5053245;28;20199;-73
2024/02/16 05:33:01;;;;;;;3.13;2.20;;;9.00;99.90;;;;;;5052268;28;20276;-74
2024/02/16 05:35:28;;;;;;;2.78;2.05;;;9.00;99.90;;;;;;5051854;28;20200;-73
2024/02/16 05:37:56;;;;;;;2.50;2.25;;;9.00;99.90;;;;;;5051924;28;20692;-73
2024/02/16 05:40:24;;;;;;;1.75;1.60;;;9.00;99.90;;;;;;5053335;28;20567;-73
2024/02/16 05:42:52;;;;;;;2.65;2.20;;;9.00;99.90;;;;;;5053250;28;20227;-73
2024/02/16 05:45:19;;;;;;;3.08;2.50;;;9.00;99.90;;;;;;5053270;28;20204;-74
2024/02/16 05:47:47;;;;;;;2.55;1.77;;;9.00;99.90;;;;;;5053417;28;20749;-73
2024/02/16 05:50:14;;;;;;;2.72;1.67;;;9.00;99.90;;;;;;5053545;28;20214;-73
2024/02/16 05:52:42;;;;;;;3.38;2.55;;;9.10;99.90;;;;;;5053285;28;20251;-73
2024/02/16 05:55:10;;;;;;;2.55;1.98;;;9.20;99.90;;;;;;5053038;28;20223;-73
2024/02/16 05:57:37;;;;;;;2.40;2.20;;;9.20;99.90;;;;;;5053130;28;20242;-75
2024/02/16 06:00:05;;;;;;;2.42;1.95;;;9.20;99.90;;;;;;5052946;28;20576;-74
2024/02/16 06:02:32;;;;;;;2.63;2.00;;;9.30;99.90;;;;;;5052971;28;20203;-74
2024/02/16 06:05:00;;;;;;;3.97;1.83;;;9.30;99.90;;;;;;5052877;28;20204;-74
2024/02/16 06:07:27;;;;;;;3.13;2.60;;;9.30;99.90;;;;;;5052885;28;20225;-74
2024/02/16 06:09:55;;;;;;;2.42;1.80;;;9.30;99.90;;;;;;5052935;28;20645;-74
2024/02/16 06:12:22;;;;;;;2.75;1.73;;;9.30;99.90;;;;;;5052842;28;20255;-74
2024/02/16 06:14:49;;;;;;;1.95;1.60;;;9.40;99.90;;;;;;5053546;28;20203;-74
2024/02/16 06:17:16;;;;;;;3.05;1.90;;;9.40;99.90;;;;;;5051858;28;20230;-74
2024/02/16 06:19:43;;;;;;;4.32;1.73;;;9.50;99.90;;;;;;5052879;28;20207;-74
2024/02/16 06:22:11;;;;;;;2.03;1.83;;;9.50;99.90;;;;;;5052551;28;20215;-74
2024/02/16 06:24:38;;;;;;;2.17;1.80;;;9.50;99.90;;;;;;5052906;28;20630;-74
2024/02/16 06:27:05;;;;;;;2.95;2.22;;;9.60;99.90;;;;;;5052295;28;20219;-74
2024/02/16 06:29:32;;;;;;;2.58;2.28;;;9.50;99.90;;;;;;5052939;28;20199;-75
2024/02/16 06:31:59;;;;;;;4.43;2.15;;;9.50;99.90;;;;;;5052497;28;20203;-74
2024/02/16 06:34:25;;;;;;;2.83;2.28;;;9.40;99.90;;;;;;5045959;28;20232;-74
2024/02/16 06:36:52;;;;;;;2.55;2.35;;;9.40;99.90;;;;;;5052534;28;20222;-74
2024/02/16 06:39:20;;;;;;;2.13;1.90;;;9.40;99.90;;;;;;5052155;28;20216;-74
2024/02/16 06:41:49;;;;;;;8.70;2.45;;;9.40;99.90;;;;;;5052441;28;20219;-74
2024/02/16 06:44:16;;;;;;;5.38;2.60;;;9.30;99.90;;;;;;5050529;28;20314;-74
2024/02/16 06:46:43;;;;;;;3.97;2.20;;;9.20;99.90;;;;;;5052526;28;20211;-74
2024/02/16 06:49:10;;;;;;;3.58;2.25;;;9.20;99.90;;;;;;5051943;28;20590;-74
2024/02/16 06:51:37;;;;;;;3.60;2.55;;;9.10;99.90;;;;;;5052371;28;20209;-74
2024/02/16 06:54:04;;;;;;;2.85;2.15;;;9.00;99.90;;;;;;5051881;28;20237;-74
2024/02/16 06:56:33;;;;;;;5.00;2.10;;;9.00;99.90;;;;;;5052016;28;20693;-74
2024/02/16 06:59:00;;;;;;;3.28;2.10;;;9.00;99.90;;;;;;5051876;28;20204;-74
2024/02/16 07:01:27;;;;;;;2.05;1.83;;;9.10;99.90;;;;;;5051841;28;20209;-74
2024/02/16 07:03:54;;;;;;;1.90;1.80;;;9.20;99.90;;;;;;5051861;28;20234;-74
2024/02/16 07:06:21;;;;;;;3.35;2.30;;;9.30;99.90;;;;;;5051740;28;20205;-74
2024/02/16 07:08:49;;;;;;;2.55;2.25;;;9.30;99.90;;;;;;5051753;28;20203;-74
2024/02/16 07:11:15;;;;;;;3.55;2.33;;;9.30;99.90;;;;;;5050211;28;20215;-75
2024/02/16 07:13:43;;;;;;;2.45;2.25;;;9.30;99.90;;;;;;5052364;28;20617;-74
2024/02/16 07:16:10;;;;;;;3.47;2.40;;;9.30;99.90;;;;;;5051506;28;20212;-74
2024/02/16 07:18:37;;;;;;;4.85;2.55;;;9.30;99.90;;;;;;5051663;28;20219;-74
2024/02/16 07:21:04;;;;;;;3.55;2.75;;;9.40;99.90;;;;;;5046119;28;20664;-74
2024/02/16 07:23:31;;;;;;;4.45;2.30;;;9.40;99.90;;;;;;5049935;28;20232;-73
2024/02/16 07:25:58;;;;;;;3.28;2.05;;;9.50;99.90;;;;;;5051461;28;20215;-73
2024/02/16 07:28:25;;;;;;;4.07;2.55;;;9.50;99.90;;;;;;5050619;28;20701;-73
2024/02/16 07:30:54;;;;;;;2.72;2.33;;;9.50;99.90;;;;;;5051375;28;20606;-73
2024/02/16 07:33:21;;;;;;;3.88;2.10;;;9.60;99.90;;;;;;5051246;28;20236;-73
2024/02/16 07:35:48;;;;;;;2.58;2.03;;;9.60;99.90;;;;;;5051494;28;20283;-73
2024/02/16 07:38:14;;;;;;;2.30;2.10;;;9.60;99.90;;;;;;5048693;28;20601;-73
2024/02/16 07:40:41;;;;;;;2.67;2.47;;;9.70;99.90;;;;;;5051392;28;20207;-74
2024/02/16 07:43:08;;;;;;;2.92;2.67;;;9.90;99.90;;;;;;5051020;28;20306;-73
2024/02/16 07:45:35;;;;;;;3.60;2.15;;;10.40;99.90;;;;;;5051261;28;20281;-73
2024/02/16 07:48:05;;;;;;;2.60;2.35;;;10.90;99.90;;;;;;5051119;28;20212;-74
2024/02/16 07:50:32;;;;;;;2.22;2.03;;;11.30;99.90;;;;;;5051179;28;20607;-74
2024/02/16 07:52:59;;;;;;;2.17;1.90;;;11.20;99.90;;;;;;5051091;28;20255;-74
2024/02/16 07:55:25;;;;;;;4.70;2.50;;;11.10;99.90;;;;;;5050930;28;20264;-73
2024/02/16 07:57:52;;;;;;;3.83;2.00;;;10.80;99.90;;;;;;5050909;28;20768;-74
2024/02/16 08:00:19;;;;;;;3.00;2.35;;;10.90;99.90;;;;;;5050985;28;20219;-73
2024/02/16 08:02:46;;;;;;;4.07;2.28;;;11.50;99.90;;;;;;5050942;28;20597;-74
2024/02/16 08:05:14;;;;;;;3.90;2.38;;;12.80;99.90;;;;;;5050785;28;20263;-73
2024/02/16 08:07:42;;;;;;;2.83;2.50;;;14.10;99.90;;;;;;5050967;28;20202;-72
2024/02/16 08:10:09;;;;;;;2.33;2.13;;;15.10;99.90;;;;;;5050864;28;20244;-72
2024/02/16 08:12:38;;;;;;;3.40;2.63;;;15.80;99.90;;;;;;5045604;28;20469;-73
2024/02/16 08:15:06;;;;;;;2.77;2.20;;;16.50;99.90;;;;;;5050903;28;20931;-73
2024/02/16 08:17:33;;;;;;;2.60;2.20;;;17.40;99.90;;;;;;5050958;28;20498;-72
2024/02/16 08:20:00;;;;;;;2.93;2.63;;;18.30;99.90;;;;;;5050858;28;20464;-73
2024/02/16 08:22:28;;;;;;;2.80;2.23;;;19.20;99.90;;;;;;5050528;28;20463;-73
2024/02/16 08:24:55;;;;;;;3.60;2.07;;;19.90;99.90;;;;;;5050767;28;20571;-73
2024/02/16 08:27:21;;;;;;;1.70;1.60;;;20.70;99.90;;;;;;5050485;28;20945;-73
2024/02/16 08:29:48;;;;;;;1.80;1.50;;;21.00;99.30;;;;;;5050923;28;20464;-73
2024/02/16 08:32:16;;;;;;;1.50;1.30;;;20.80;99.10;;;;;;5047662;28;20467;-73
2024/02/16 08:34:43;;;;;;;1.87;1.67;;;20.90;98.40;;;;;;5050916;28;20537;-73
2024/02/16 08:37:10;;;;;;;2.20;1.50;;;20.80;98.30;;;;;;5050489;28;20829;-73
2024/02/16 08:39:39;;;;;;;1.90;1.37;;;21.40;97.30;;;;;;5045705;28;20510;-73
2024/02/16 08:42:08;;;;;;;2.77;1.63;;;21.80;96.90;;;;;;5054693;28;20460;-73
2024/02/16 08:44:34;;;;;;;1.77;1.37;;;21.90;96.60;;;;;;5054332;28;20510;-73
2024/02/16 08:47:01;;;;;;;1.67;1.47;;;22.00;96.20;;;;;;5054699;28;20852;-72
2024/02/16 08:49:28;;;;;;;1.97;1.50;;;21.60;95.80;;;;;;5054442;28;20956;-72
2024/02/16 08:51:55;;;;;;;1.63;1.40;;;21.30;96.00;;;;;;5054788;28;20466;-72
2024/02/16 08:54:21;;;;;;;1.37;1.27;;;20.90;96.10;;;;;;5054245;28;20479;-73
2024/02/16 08:56:49;;;;;;;1.60;1.33;;;21.30;96.50;;;;;;5054741;28;20486;-72
2024/02/16 08:59:16;;;;;;;4.63;1.40;;;22.10;95.50;;;;;;5051362;28;20483;-75
2024/02/16 09:01:44;;;;;;;1.40;1.30;;;22.70;95.40;;;;;;5054464;28;20975;-73
2024/02/16 09:04:11;;;;;;;1.70;1.40;;;23.40;94.30;;;;;;5054220;28;20486;-73
2024/02/16 09:06:38;;;;;;;1.83;1.70;;;23.90;94.30;;;;;;5054141;28;20843;-73
2024/02/16 09:09:06;;;;;;;2.07;1.37;;;24.90;93.60;;;;;;5053984;28;20459;-73
2024/02/16 09:11:33;;;;;;;1.93;1.33;;;25.10;92.80;;;;;;5053942;28;20459;-73
2024/02/16 09:14:01;;;;;;;1.50;1.30;;;24.70;92.30;;;;;;5054298;28;20482;-72
2024/02/16 09:16:28;;;;;;;2.17;1.70;;;24.50;92.20;;;;;;5054250;28;20460;-72
2024/02/16 09:18:55;;;;;;;1.80;1.60;;;24.80;92.50;;;;;;5053828;28;20479;-72
2024/02/16 09:21:23;;;;;;;2.60;1.60;;;24.30;92.20;;;;;;5053904;28;20474;-72
2024/02/16 09:23:50;;;;;;;1.67;1.57;;;22.50;93.00;;;;;;5053887;28;20471;-72
2024/02/16 09:26:17;;;;;;;1.63;1.40;;;20.80;94.40;;;;;;5053940;28;20847;-73
2024/02/16 09:28:44;;;;;;;2.23;1.80;;;19.60;95.70;;;;;;5053711;28;20456;-72
2024/02/16 09:31:15;;;;;;;2.83;1.60;;;18.70;96.60;;;;;;5053796;28;20465;-73
2024/02/16 09:33:42;;;;;;;1.53;1.40;;;18.40;97.10;;;;;;5053768;28;20494;-73
2024/02/16 09:36:09;;;;;;;1.60;1.50;;;18.20;97.40;;;;;;5053775;28;20470;-72
2024/02/16 09:38:36;;;;;;;1.40;1.10;;;18.30;97.40;;;;;;5053422;28;20574;-72
2024/02/16 09:41:03;;;;;;;1.90;1.40;;;18.30;97.50;;;;;;5053877;28;20460;-72
2024/02/16 09:43:31;;;;;;;1.53;1.20;;;18.40;97.30;;;;;;5053217;28;20475;-72
2024/02/16 09:45:59;;;;;;;2.17;1.30;;;18.40;97.70;;;;;;5053542;28;20455;-72
2024/02/16 09:48:28;;;;;;;1.70;1.50;;;18.40;97.90;;;;;;5053294;28;20483;-72
2024/02/16 09:50:56;;;;;;;1.87;1.60;;;18.60;97.60;;;;;;5053603;28;21193;-72
2024/02/16 09:53:25;;;;;;;1.57;1.30;;;18.90;97.50;;;;;;5052017;28;20519;-72
2024/02/16 09:55:52;;;;;;;1.73;1.07;;;19.30;97.10;;;;;;5053425;28;20459;-72
2024/02/16 09:58:19;;;;;;;2.40;1.67;;;19.50;97.10;;;;;;5053167;28;20566;-72
2024/02/16 10:00:50;;;;;;;1.43;1.17;;;19.80;96.50;;;;;;5049465;28;20464;-72
2024/02/16 10:03:29;;;;;;;2.97;1.90;;;20.00;96.30;;;;;;5049398;28;20483;-72
2024/02/16 10:06:06;;;;;;;1.30;1.10;;;19.60;96.60;;;;;;5050702;28;20455;-72
2024/02/16 10:08:34;;;;;;;1.47;1.20;;;19.30;96.80;;;;;;5052788;28;20500;-72
2024/02/16 10:11:04;;;;;;;1.77;1.40;;;19.00;97.10;;;;;;5053007;28;20965;-72
2024/02/16 10:13:32;;;;;;;1.60;1.40;;;18.80;97.50;;;;;;5052823;28;20550;-72
2024/02/16 10:16:08;;;;;;;2.10;2.00;;;18.80;97.90;;;;;;5053020;28;20467;-72
2024/02/16 10:18:36;;;;;;;1.97;1.20;;;18.70;97.90;;;;;;5052643;28;20494;-72
2024/02/16 10:21:03;;;;;;;2.40;1.67;;;18.60;97.40;;;;;;5052780;28;21004;-72
2024/02/16 10:23:31;;;;;;;2.00;1.20;;;18.50;97.60;;;;;;5052687;28;20475;-72
2024/02/16 10:26:00;;;;;;;2.63;1.20;;;18.30;98.00;;;;;;5052756;28;20467;-72
2024/02/16 10:28:30;;;;;;;1.37;1.27;;;18.30;98.30;;;;;;5052630;28;20460;-73
2024/02/16 10:31:01;;;;;;;1.43;1.20;;;18.30;98.50;;;;;;5052711;28;20464;-73
2024/02/16 10:33:29;;;;;;;1.43;1.23;;;18.10;98.20;;;;;;5052446;28;20514;-73
2024/02/16 10:35:58;;;;;;;1.70;1.17;;;18.00;98.20;;;;;;5052568;28;20474;-73
2024/02/16 10:38:26;;;;;;;1.70;1.50;;;17.90;98.60;;;;;;5052606;28;20486;-73
2024/02/16 10:40:54;;;;;;;1.20;1.10;;;17.80;98.40;;;;;;5052437;28;20837;-73
2024/02/16 10:43:22;;;;;;;1.50;1.10;;;17.70;98.90;;;;;;5052358;28;20486;-73
2024/02/16 10:45:52;;;;;;;1.47;1.37;;;17.60;99.30;;;;;;5052211;28;20476;-73
2024/02/16 10:48:19;;;;;;;2.77;1.40;;;17.50;99.20;;;;;;5048089;28;20964;-73
2024/02/16 10:50:46;;;;;;;2.73;1.67;;;17.50;99.30;;;;;;5052374;28;20546;-73
2024/02/16 10:53:21;;;;;;;1.73;1.20;;;17.30;99.40;;;;;;5052107;28;20642;-73
2024/02/16 10:55:48;;;;;;;1.90;1.40;;;17.20;99.80;;;;;;5052239;28;20463;-72
2024/02/16 10:58:15;;;;;;;2.20;1.60;;;17.10;99.90;;;;;;5047142;28;20493;-73
2024/02/16 11:00:52;;;;;;;3.60;1.70;;;17.00;99.90;;;;;;5051880;28;20467;-73
2024/02/16 11:03:23;;;;;;;3.40;1.40;;;17.00;99.90;;;;;;5047510;28;20479;-73
2024/02/16 11:05:49;;;;;;;1.83;1.43;;;16.90;99.90;;;;;;5051740;28;20884;-73
2024/02/16 11:08:19;;;;;;;2.67;1.70;;;16.90;99.90;;;;;;5052207;28;20440;-74
2024/02/16 11:10:57;;;;;;;3.00;1.30;;;16.90;99.90;;;;;;5051741;28;20834;-72
2024/02/16 11:13:25;;;;;;;2.73;1.57;;;16.80;99.90;;;;;;5048046;28;20518;-72
2024/02/16 11:15:58;;;;;;;1.93;1.50;;;16.80;99.90;;;;;;5051860;28;20458;-72
2024/02/16 11:18:25;;;;;;;3.53;1.90;;;16.80;99.90;;;;;;5051848;28;20487;-72
2024/02/16 11:20:54;;;;;;;3.90;1.97;;;16.90;99.90;;;;;;5051585;28;20940;-72
2024/02/16 11:23:27;;;;;;;1.83;1.40;;;17.10;99.90;;;;;;5051815;28;20479;-72
2024/02/16 11:25:54;;;;;;;2.53;1.60;;;17.20;99.90;;;;;;5049106;28;20460;-74
2024/02/16 11:28:21;;;;;;;1.93;1.27;;;17.40;99.90;;;;;;5051722;28;20459;-73
2024/02/16 11:30:48;;;;;;;1.87;1.60;;;17.50;99.90;;;;;;5051548;28;20460;-74
2024/02/16 11:33:15;;;;;;;1.50;1.30;;;17.70;99.90;;;;;;5051550;28;20482;-74
2024/02/16 11:35:42;;;;;;;3.80;1.90;;;17.90;99.90;;;;;;5052165;28;20891;-73
2024/02/16 11:38:09;;;;;;;2.67;1.63;;;18.20;99.90;;;;;;5051685;28;20491;-74
2024/02/16 11:40:37;;;;;;;2.30;1.77;;;18.60;99.80;;;;;;5051486;28;20474;-74
2024/02/16 11:43:04;;;;;;;1.70;1.50;;;19.30;99.50;;;;;;5051350;28;20511;-74
2024/02/16 11:45:35;;;;;;;1.77;1.50;;;20.20;98.50;;;;;;5051315;28;20463;-74
2024/02/16 11:48:06;;;;;;;2.13;1.47;;;21.30;98.00;;;;;;5051508;28;20988;-74
2024/02/16 11:50:33;;;;;;;4.20;1.63;;;22.50;97.20;;;;;;5051146;28;20460;-74
2024/02/16 11:53:00;;;;;;;2.03;1.77;;;23.50;96.20;;;;;;5050929;28;20942;-74
2024/02/16 11:55:27;;;;;;;2.27;1.70;;;24.20;95.50;;;;;;5051374;28;20486;-74
2024/02/16 11:57:56;;;;;;;3.10;1.90;;;25.00;94.50;;;;;;5051084;28;20463;-74
2024/02/16 12:00:23;;;;;;;2.30;1.90;;;25.80;93.90;;;;;;5051330;28;20456;-74
2024/02/16 12:03:00;;;;;;;3.10;1.60;;;26.20;92.90;;;;;;5050646;28;20487;-74
2024/02/16 12:05:26;;;;;;;1.97;1.77;;;26.00;93.60;;;;;;5051250;28;20482;-74
2024/02/16 12:07:53;;;;;;;1.83;1.67;;;25.40;93.70;;;;;;5050780;28;20539;-74
2024/02/16 12:10:20;;;;;;;1.73;1.40;;;24.80;93.40;;;;;;5051224;28;20451;-74
2024/02/16 12:12:48;;;;;;;3.13;1.50;;;24.40;93.90;;;;;;5050540;28;20506;-74
2024/02/16 12:15:17;;;;;;;1.57;1.20;;;24.50;94.00;;;;;;5044724;28;20471;-74
2024/02/16 12:17:45;;;;;;;2.20;1.40;;;24.90;94.00;;;;;;5050429;28;20455;-74
2024/02/16 12:20:13;;;;;;;2.27;1.60;;;25.20;93.80;;;;;;5050649;28;20701;-74
2024/02/16 12:22:40;;;;;;;4.27;1.43;;;25.50;93.40;;;;;;5050403;28;20456;-74
2024/02/16 12:25:07;;;;;;;1.83;1.60;;;25.60;93.20;;;;;;5050639;28;20468;-74
2024/02/16 12:27:34;;;;;;;3.53;1.30;;;25.10;93.40;;;;;;5050401;28;20463;-74
2024/02/16 12:30:02;;;;;;;3.10;1.63;;;24.50;93.70;;;;;;5050446;28;20517;-74
2024/02/16 12:32:30;;;;;;;2.80;1.87;;;23.90;94.60;;;;;;5050449;28;20561;-74
2024/02/16 12:34:57;;;;;;;1.80;1.50;;;23.30;94.50;;;;;;5050477;28;20466;-74
2024/02/16 12:37:25;;;;;;;1.97;1.70;;;22.70;95.30;;;;;;5050540;28;20459;-74
2024/02/16 12:39:51;;;;;;;3.00;1.60;;;22.40;96.00;;;;;;5050142;28;20890;-74
2024/02/16 12:42:18;;;;;;;3.00;1.67;;;22.10;95.30;;;;;;5050587;28;20459;-74
2024/02/16 12:44:45;;;;;;;1.97;1.60;;;21.70;95.60;;;;;;5050238;28;20979;-74
2024/02/16 12:47:12;;;;;;;1.60;1.50;;;21.20;96.20;;;;;;5051924;28;20470;-74
2024/02/16 12:49:40;;;;;;;3.00;1.60;;;20.70;96.60;;;;;;5051419;28;20463;-76
2024/02/16 12:52:07;;;;;;;4.70;1.60;;;20.40;96.70;;;;;;5050979;28;20460;-78
2024/02/16 12:54:34;;;;;;;2.57;1.60;;;20.20;96.80;;;;;;5050524;28;20844;-76
2024/02/16 12:57:01;;;;;;;2.07;1.83;;;20.00;97.50;;;;;;5050287;28;20980;-75
2024/02/16 12:59:27;;;;;;;1.83;1.50;;;19.80;97.90;;;;;;5050610;28;20491;-76
2024/02/16 13:01:54;;;;;;;4.53;2.23;;;19.70;98.10;;;;;;5050088;28;20467;-75